createdAt,value
2023-04-05T00:02:18.967Z,-2.15
2023-04-05T00:04:54.511Z,-2.16
2023-04-05T00:07:24.766Z,-2.15
2023-04-05T00:09:55.108Z,-2.16
2023-04-05T00:12:23.956Z,-2.22
2023-04-05T00:14:52.632Z,-2.24
2023-04-05T00:17:21.097Z,-2.28
2023-04-05T00:19:58.239Z,-2.26
2023-04-05T00:22:27.010Z,-2.26
2023-04-05T00:24:57.136Z,-2.28
2023-04-05T00:27:25.822Z,-2.29
2023-04-05T00:29:57.645Z,-2.35
2023-04-05T00:32:26.203Z,-2.38
2023-04-05T00:34:54.740Z,-2.38
2023-04-05T00:37:23.680Z,-2.37
2023-04-05T00:39:54.053Z,-2.41
2023-04-05T00:42:24.079Z,-2.43
2023-04-05T00:44:52.812Z,-2.46
2023-04-05T00:47:23.451Z,-2.44
2023-04-05T00:49:52.614Z,-2.45
2023-04-05T00:52:23.686Z,-2.45
2023-04-05T00:54:53.483Z,-2.44
2023-04-05T00:57:28.222Z,-2.47
2023-04-05T01:00:02.152Z,-2.48
2023-04-05T01:02:34.624Z,-2.54
2023-04-05T01:05:06.344Z,-2.56
2023-04-05T01:07:42.596Z,-2.61
2023-04-05T01:10:12.883Z,-2.60
2023-04-05T01:12:43.243Z,-2.60
2023-04-05T01:15:14.225Z,-2.69
2023-04-05T01:17:45.392Z,-2.76
2023-04-05T01:20:14.409Z,-2.80
2023-04-05T01:23:15.025Z,-2.79
2023-04-05T01:26:19.578Z,-2.83
2023-04-05T01:29:29.989Z,-2.83
2023-04-05T01:32:04.280Z,-2.84
2023-04-05T01:34:42.753Z,-2.87
2023-04-05T01:37:14.464Z,-2.88
2023-04-05T01:39:44.256Z,-2.89
2023-04-05T01:42:12.999Z,-2.93
2023-04-05T01:44:45.724Z,-2.95
2023-04-05T01:47:15.687Z,-3.02
2023-04-05T01:49:44.817Z,-3.05
2023-04-05T01:52:13.432Z,-3.10
2023-04-05T01:54:42.353Z,-3.11
2023-04-05T01:57:10.766Z,-3.10
2023-04-05T01:59:39.871Z,-3.26
2023-04-05T02:02:09.146Z,-3.28
2023-04-05T02:04:39.382Z,-3.38
2023-04-05T02:07:08.227Z,-3.30
2023-04-05T02:09:37.324Z,-3.31
2023-04-05T02:12:06.600Z,-3.35
2023-04-05T02:14:35.728Z,-3.33
2023-04-05T02:17:04.443Z,-3.36
2023-04-05T02:19:37.492Z,-3.37
2023-04-05T02:22:07.660Z,-3.43
2023-04-05T02:24:36.514Z,-3.51
2023-04-05T02:27:05.619Z,-3.53
2023-04-05T02:29:37.101Z,-3.54
2023-04-05T02:32:06.401Z,-3.53
2023-04-05T02:34:37.220Z,-3.52
2023-04-05T02:37:08.261Z,-3.51
2023-04-05T02:39:37.031Z,-3.51
2023-04-05T02:42:06.314Z,-3.52
2023-04-05T02:44:35.189Z,-3.53
2023-04-05T02:47:03.986Z,-3.57
2023-04-05T02:49:32.672Z,-3.62
2023-04-05T02:52:01.362Z,-3.64
2023-04-05T02:54:31.666Z,-3.67
2023-04-05T02:57:02.520Z,-3.75
2023-04-05T02:59:31.172Z,-3.80
2023-04-05T03:01:59.775Z,-3.84
2023-04-05T03:04:28.813Z,-3.84
2023-04-05T03:06:57.523Z,-3.86
2023-04-05T03:09:27.449Z,-3.86
2023-04-05T03:11:57.975Z,-3.90
2023-04-05T03:14:26.555Z,-3.89
2023-04-05T03:16:55.293Z,-3.87
2023-04-05T03:19:24.582Z,-3.91
2023-04-05T03:21:53.683Z,-3.97
2023-04-05T03:24:22.258Z,-3.97
2023-04-05T03:26:51.389Z,-3.98
2023-04-05T03:29:21.803Z,-4.05
2023-04-05T03:31:51.789Z,-4.07
2023-04-05T03:34:22.389Z,-4.08
2023-04-05T03:36:51.160Z,-4.08
2023-04-05T03:39:19.704Z,-4.10
2023-04-05T03:41:48.039Z,-4.11
2023-04-05T03:44:16.691Z,-4.10
2023-04-05T03:46:46.801Z,-4.08
2023-04-05T03:49:16.785Z,-4.11
2023-04-05T03:51:45.231Z,-4.11
2023-04-05T03:54:13.767Z,-4.13
2023-04-05T03:56:42.364Z,-4.17
2023-04-05T03:59:10.836Z,-4.20
2023-04-05T04:01:39.686Z,-4.19
2023-04-05T04:04:09.826Z,-4.43
2023-04-05T04:06:38.561Z,-4.20
2023-04-05T04:09:07.393Z,-4.21
2023-04-05T04:11:38.444Z,-4.26
2023-04-05T04:14:07.033Z,-4.30
2023-04-05T04:16:35.851Z,-4.33
2023-04-05T04:19:04.694Z,-4.37
2023-04-05T04:21:36.129Z,-4.40
2023-04-05T04:24:05.235Z,-4.40
2023-04-05T04:26:37.765Z,-4.39
2023-04-05T04:29:06.490Z,-4.39
2023-04-05T04:31:35.165Z,-4.44
2023-04-05T04:34:05.754Z,-4.41
2023-04-05T04:36:37.295Z,-4.39
2023-04-05T04:39:07.688Z,-4.37
2023-04-05T04:41:39.316Z,-4.44
2023-04-05T04:44:07.885Z,-4.46
2023-04-05T04:46:43.130Z,-4.44
2023-04-05T04:49:13.478Z,-4.45
2023-04-05T04:51:43.770Z,-4.46
2023-04-05T04:54:13.386Z,-4.39
2023-04-05T04:56:41.952Z,-4.36
2023-04-05T04:59:10.619Z,-4.38
2023-04-05T05:01:41.206Z,-4.41
2023-04-05T05:04:09.951Z,-4.43
2023-04-05T05:06:38.905Z,-4.39
2023-04-05T05:09:08.766Z,-4.34
2023-04-05T05:11:37.408Z,-4.25
2023-04-05T05:14:05.913Z,-4.21
2023-04-05T05:16:34.678Z,-4.14
2023-04-05T05:19:03.215Z,-4.08
2023-04-05T05:21:32.463Z,-4.01
2023-04-05T05:24:01.310Z,-3.93
2023-04-05T05:26:31.502Z,-3.86
2023-04-05T05:29:02.779Z,-3.81
2023-04-05T05:31:34.139Z,-3.78
2023-04-05T05:34:03.065Z,-3.71
2023-04-05T05:36:31.712Z,-3.63
2023-04-05T05:39:00.319Z,-3.55
2023-04-05T05:41:30.446Z,-3.51
2023-04-05T05:43:58.838Z,-3.44
2023-04-05T05:46:27.820Z,-3.38
2023-04-05T05:48:59.335Z,-3.27
2023-04-05T05:51:28.127Z,-3.21
2023-04-05T05:53:57.513Z,-3.11
2023-04-05T05:56:26.313Z,-3.03
2023-04-05T05:58:56.610Z,-2.93
2023-04-05T06:01:28.525Z,-2.87
2023-04-05T06:03:57.409Z,-2.74
2023-04-05T06:06:26.703Z,-2.67
2023-04-05T06:08:55.309Z,-2.53
2023-04-05T06:11:25.579Z,-2.50
2023-04-05T06:13:56.424Z,-2.27
2023-04-05T06:16:25.178Z,-2.15
2023-04-05T06:18:55.742Z,-2.10
2023-04-05T06:21:24.447Z,-2.03
2023-04-05T06:23:53.175Z,-1.90
2023-04-05T06:26:23.735Z,-1.77
2023-04-05T06:28:52.727Z,-1.59
2023-04-05T06:31:28.193Z,-1.44
2023-04-05T06:33:57.433Z,-1.29
2023-04-05T06:36:27.752Z,-1.16
2023-04-05T06:38:59.488Z,-0.99
2023-04-05T06:41:28.971Z,-0.92
2023-04-05T06:43:57.687Z,-0.64
2023-04-05T06:46:29.217Z,-0.47
2023-04-05T06:48:57.661Z,-0.34
2023-04-05T06:51:27.487Z,-0.19
2023-04-05T06:53:56.564Z,0.02
2023-04-05T06:56:25.445Z,0.17
2023-04-05T06:58:55.907Z,0.33
2023-04-05T07:01:25.303Z,0.49
2023-04-05T07:03:55.946Z,0.64
2023-04-05T07:06:25.325Z,0.74
2023-04-05T07:08:54.306Z,0.79
2023-04-05T07:11:23.110Z,0.92
2023-04-05T07:13:51.917Z,1.04
2023-04-05T07:16:23.877Z,1.05
2023-04-05T07:18:52.872Z,1.10
2023-04-05T07:21:23.528Z,1.30
2023-04-05T07:24:02.452Z,1.36
2023-04-05T07:26:57.208Z,1.43
2023-04-05T07:29:26.535Z,1.02
2023-04-05T07:31:55.288Z,1.09
2023-04-05T07:34:49.741Z,1.22
2023-04-05T07:37:19.632Z,1.42
2023-04-05T07:39:48.271Z,1.33
2023-04-05T07:42:27.000Z,1.22
2023-04-05T07:44:55.785Z,1.51
2023-04-05T07:47:24.646Z,1.56
2023-04-05T07:49:53.328Z,1.69
2023-04-05T07:52:23.510Z,1.69
2023-04-05T07:54:54.711Z,1.83
2023-04-05T07:57:23.579Z,1.81
2023-04-05T07:59:52.961Z,1.99
2023-04-05T08:02:21.665Z,2.01
2023-04-05T08:04:50.266Z,2.01
2023-04-05T08:07:21.702Z,2.03
2023-04-05T08:09:52.079Z,1.93
2023-04-05T08:12:20.967Z,1.84
2023-04-05T08:14:49.440Z,1.84
2023-04-05T08:17:18.560Z,2.00
2023-04-05T08:19:47.418Z,1.97
2023-04-05T08:22:16.791Z,2.03
2023-04-05T08:24:45.252Z,2.10
2023-04-05T08:27:15.973Z,2.00
2023-04-05T08:29:44.618Z,2.08
2023-04-05T08:32:13.610Z,2.30
2023-04-05T08:34:44.531Z,2.39
2023-04-05T08:37:14.653Z,2.34
2023-04-05T08:39:43.215Z,2.52
2023-04-05T08:42:18.362Z,2.74
2023-04-05T08:44:47.876Z,2.83
2023-04-05T08:47:20.869Z,2.87
2023-04-05T08:49:49.534Z,2.97
2023-04-05T08:52:18.463Z,2.76
2023-04-05T08:54:48.039Z,3.31
2023-04-05T08:57:20.538Z,3.58
2023-04-05T08:59:49.928Z,3.69
2023-04-05T09:02:21.229Z,3.55
2023-04-05T09:04:50.285Z,3.55
2023-04-05T09:07:19.495Z,3.62
2023-04-05T09:09:50.668Z,3.60
2023-04-05T09:12:22.404Z,3.42
2023-04-05T09:14:51.376Z,3.49
2023-04-05T09:17:20.568Z,3.66
2023-04-05T09:19:50.540Z,3.70
2023-04-05T09:22:19.751Z,3.66
2023-04-05T09:24:48.953Z,3.59
2023-04-05T09:27:19.194Z,3.65
2023-04-05T09:29:50.890Z,3.58
2023-04-05T09:32:21.556Z,3.31
2023-04-05T09:34:52.504Z,3.26
2023-04-05T09:37:22.991Z,3.24
2023-04-05T09:39:52.751Z,3.28
2023-04-05T09:42:23.190Z,3.35
2023-04-05T09:44:54.965Z,3.49
2023-04-05T09:47:25.703Z,3.51
2023-04-05T09:49:55.252Z,3.42
2023-04-05T09:52:25.359Z,3.53
2023-04-05T09:54:56.263Z,3.56
2023-04-05T09:57:26.631Z,3.31
2023-04-05T09:59:57.653Z,3.59
2023-04-05T10:02:27.571Z,3.90
2023-04-05T10:04:56.269Z,3.83
2023-04-05T10:07:25.119Z,4.02
2023-04-05T10:09:53.926Z,3.85
2023-04-05T10:12:27.695Z,3.99
2023-04-05T10:14:58.588Z,4.30
2023-04-05T10:17:30.571Z,4.35
2023-04-05T10:20:12.202Z,4.30
2023-04-05T10:22:46.295Z,4.42
2023-04-05T10:25:23.071Z,3.96
2023-04-05T10:27:55.879Z,3.95
2023-04-05T10:30:37.110Z,4.11
2023-04-05T10:33:13.564Z,4.17
2023-04-05T10:35:54.557Z,4.25
2023-04-05T10:38:26.437Z,3.92
2023-04-05T10:40:56.722Z,3.77
2023-04-05T10:43:30.027Z,4.00
2023-04-05T10:46:01.165Z,4.08
2023-04-05T10:48:38.140Z,4.19
2023-04-05T10:51:06.906Z,4.06
2023-04-05T10:53:36.671Z,4.03
2023-04-05T10:56:05.914Z,4.09
2023-04-05T10:58:36.940Z,4.17
2023-04-05T11:01:08.382Z,4.37
2023-04-05T11:03:44.503Z,4.27
2023-04-05T11:06:23.622Z,4.34
2023-04-05T11:08:55.446Z,4.36
2023-04-05T11:11:24.794Z,4.55
2023-04-05T11:13:54.516Z,4.92
2023-04-05T11:16:26.852Z,5.04
2023-04-05T11:18:55.586Z,5.24
2023-04-05T11:21:25.984Z,5.23
2023-04-05T11:24:15.760Z,5.49
2023-04-05T11:26:57.756Z,5.45
2023-04-05T11:29:54.654Z,5.85
2023-04-05T11:32:25.188Z,5.98
2023-04-05T11:35:03.841Z,5.53
2023-04-05T11:37:54.292Z,5.69
2023-04-05T11:40:27.922Z,5.80
2023-04-05T11:43:07.886Z,5.90
2023-04-05T11:45:38.772Z,5.93
2023-04-05T11:48:10.639Z,5.90
2023-04-05T11:50:42.202Z,5.94
2023-04-05T11:53:19.311Z,5.86
2023-04-05T11:55:52.989Z,5.98
2023-04-05T11:58:23.664Z,6.12
2023-04-05T12:01:00.146Z,5.89
2023-04-05T12:03:32.763Z,5.69
2023-04-05T12:06:03.426Z,5.79
2023-04-05T12:08:42.732Z,5.56
2023-04-05T12:11:12.884Z,4.95
2023-04-05T12:13:41.921Z,5.20
2023-04-05T12:16:12.989Z,5.30
2023-04-05T12:18:44.210Z,5.24
2023-04-05T12:21:13.426Z,5.31
2023-04-05T12:23:42.186Z,5.57
2023-04-05T12:26:11.015Z,5.74
2023-04-05T12:28:52.671Z,6.10
2023-04-05T12:31:40.090Z,6.29
2023-04-05T12:34:14.943Z,6.47
2023-04-05T12:36:45.939Z,6.68
2023-04-05T12:39:14.924Z,6.37
2023-04-05T12:41:43.706Z,6.16
2023-04-05T12:44:13.893Z,6.71
2023-04-05T12:46:44.311Z,7.10
2023-04-05T12:49:17.483Z,6.79
2023-04-05T12:51:47.244Z,5.93
2023-04-05T12:54:16.946Z,6.33
2023-04-05T12:56:53.366Z,6.56
2023-04-05T12:59:22.559Z,6.47
2023-04-05T13:01:51.389Z,6.62
2023-04-05T13:04:23.341Z,7.02
2023-04-05T13:06:52.264Z,7.76
2023-04-05T13:09:22.862Z,6.86
2023-04-05T13:11:52.349Z,7.28
2023-04-05T13:14:21.452Z,7.92
2023-04-05T13:16:50.216Z,7.83
2023-04-05T13:19:21.047Z,7.77
2023-04-05T13:21:49.922Z,7.37
2023-04-05T13:24:19.070Z,7.07
2023-04-05T13:26:50.804Z,7.44
2023-04-05T13:29:19.526Z,7.72
2023-04-05T13:31:48.338Z,7.61
2023-04-05T13:34:36.148Z,7.77
2023-04-05T13:37:04.918Z,7.74
2023-04-05T13:39:34.213Z,8.35
2023-04-05T13:42:02.904Z,8.61
2023-04-05T13:44:31.607Z,9.09
2023-04-05T13:47:00.234Z,9.16
2023-04-05T13:49:31.261Z,8.94
2023-04-05T13:52:01.137Z,8.85
2023-04-05T13:54:30.321Z,8.55
2023-04-05T13:56:59.308Z,7.86
2023-04-05T13:59:28.096Z,7.71
2023-04-05T14:01:56.790Z,7.63
2023-04-05T14:04:25.480Z,7.56
2023-04-05T14:07:01.316Z,7.56
2023-04-05T14:09:34.526Z,7.39
2023-04-05T14:12:07.431Z,7.49
2023-04-05T14:14:36.747Z,7.56
2023-04-05T14:17:05.374Z,7.39
2023-04-05T14:19:34.326Z,7.51
2023-04-05T14:22:03.328Z,7.63
2023-04-05T14:24:33.171Z,7.57
2023-04-05T14:27:02.821Z,7.10
2023-04-05T14:29:32.370Z,6.91
2023-04-05T14:32:02.445Z,6.68
2023-04-05T14:34:31.823Z,6.27
2023-04-05T14:37:01.076Z,6.28
2023-04-05T14:39:30.435Z,5.85
2023-04-05T14:42:01.557Z,5.96
2023-04-05T14:44:30.405Z,6.47
2023-04-05T14:46:59.280Z,6.84
2023-04-05T14:49:27.996Z,7.07
2023-04-05T14:51:57.361Z,7.00
2023-04-05T14:54:26.313Z,6.90
2023-04-05T14:56:55.006Z,7.00
2023-04-05T14:59:25.950Z,6.99
2023-04-05T15:01:54.757Z,6.97
2023-04-05T15:04:23.535Z,6.83
2023-04-05T15:06:52.430Z,6.50
2023-04-05T15:09:21.780Z,6.12
2023-04-05T15:11:50.915Z,6.30
2023-04-05T15:14:29.031Z,5.95
2023-04-05T15:17:02.599Z,6.17
2023-04-05T15:19:31.772Z,6.20
2023-04-05T15:22:00.681Z,6.22
2023-04-05T15:24:29.191Z,6.80
2023-04-05T15:27:02.437Z,7.55
2023-04-05T15:29:31.281Z,8.02
2023-04-05T15:32:02.472Z,8.10
2023-04-05T15:34:32.202Z,7.67
2023-04-05T15:37:01.194Z,7.84
2023-04-05T15:39:30.579Z,8.44
2023-04-05T15:41:59.855Z,8.25
2023-04-05T15:44:30.193Z,8.01
2023-04-05T15:46:58.846Z,7.85
2023-04-05T15:49:29.075Z,8.05
2023-04-05T15:52:01.154Z,7.03
2023-04-05T15:54:29.947Z,6.83
2023-04-05T15:56:58.863Z,6.69
2023-04-05T15:59:27.634Z,6.56
2023-04-05T16:01:56.851Z,6.39
2023-04-05T16:04:28.597Z,6.09
2023-04-05T16:06:58.792Z,5.92
2023-04-05T16:09:35.275Z,5.81
2023-04-05T16:12:03.975Z,5.60
2023-04-05T16:14:33.048Z,5.57
2023-04-05T16:17:04.727Z,5.58
2023-04-05T16:19:33.575Z,5.56
2023-04-05T16:22:04.121Z,5.51
2023-04-05T16:24:33.614Z,5.50
2023-04-05T16:27:02.807Z,5.49
2023-04-05T16:29:31.989Z,5.32
2023-04-05T16:32:00.943Z,5.24
2023-04-05T16:34:29.720Z,5.20
2023-04-05T16:36:58.502Z,5.12
2023-04-05T16:39:28.735Z,5.04
2023-04-05T16:41:57.580Z,4.96
2023-04-05T16:44:26.807Z,4.88
2023-04-05T16:46:56.664Z,4.85
2023-04-05T16:49:25.298Z,4.83
2023-04-05T16:51:53.909Z,4.80
2023-04-05T16:54:22.858Z,4.77
2023-04-05T16:56:53.213Z,4.74
2023-04-05T16:59:21.848Z,4.69
2023-04-05T17:01:50.484Z,4.67
2023-04-05T17:04:19.654Z,4.62
2023-04-05T17:06:48.568Z,4.58
2023-04-05T17:09:18.627Z,4.47
2023-04-05T17:11:48.165Z,4.40
2023-04-05T17:14:18.661Z,4.35
2023-04-05T17:16:49.982Z,4.26
2023-04-05T17:19:18.845Z,4.20
2023-04-05T17:21:50.974Z,4.11
2023-04-05T17:24:19.661Z,4.04
2023-04-05T17:26:48.139Z,3.99
2023-04-05T17:29:18.559Z,3.90
2023-04-05T17:31:47.435Z,3.76
2023-04-05T17:34:17.041Z,3.55
2023-04-05T17:36:46.747Z,3.40
2023-04-05T17:39:16.671Z,3.20
2023-04-05T17:41:47.692Z,3.08
2023-04-05T17:44:19.264Z,2.93
2023-04-05T17:46:57.250Z,2.78
2023-04-05T17:49:33.163Z,2.65
2023-04-05T17:52:02.170Z,2.53
2023-04-05T17:54:32.013Z,2.37
2023-04-05T17:57:00.743Z,2.28
2023-04-05T17:59:30.990Z,2.15
2023-04-05T18:02:00.335Z,1.98
2023-04-05T18:04:29.124Z,1.84
2023-04-05T18:06:58.298Z,1.57
2023-04-05T18:09:28.163Z,1.38
2023-04-05T18:11:57.327Z,1.28
2023-04-05T18:14:26.037Z,1.12
2023-04-05T18:16:56.392Z,1.06
2023-04-05T18:19:25.150Z,1.04
2023-04-05T18:21:53.749Z,0.88
2023-04-05T18:24:22.396Z,0.92
2023-04-05T18:26:51.844Z,0.78
2023-04-05T18:29:21.928Z,0.51
2023-04-05T18:31:51.197Z,0.36
2023-04-05T18:34:21.859Z,0.31
2023-04-05T18:36:51.396Z,0.28
2023-04-05T18:39:21.348Z,0.28
2023-04-05T18:41:52.398Z,0.21
2023-04-05T18:44:23.500Z,0.10
2023-04-05T18:46:52.405Z,0.12
2023-04-05T18:49:22.704Z,0.16
2023-04-05T18:51:52.040Z,0.20
2023-04-05T18:54:21.369Z,0.17
2023-04-05T18:56:50.502Z,0.12
2023-04-05T18:59:22.437Z,0.12
2023-04-05T19:01:51.529Z,0.11
2023-04-05T19:04:22.150Z,0.04
2023-04-05T19:06:51.422Z,-0.01
2023-04-05T19:09:22.398Z,-0.08
2023-04-05T19:11:51.257Z,-0.14
2023-04-05T19:14:19.988Z,-0.25
2023-04-05T19:16:49.406Z,-0.28
2023-04-05T19:19:19.134Z,-0.25
2023-04-05T19:21:49.178Z,-0.25
2023-04-05T19:24:18.971Z,-0.26
2023-04-05T19:26:48.682Z,-0.25
2023-04-05T19:29:17.791Z,-0.24
2023-04-05T19:31:46.354Z,-0.23
2023-04-05T19:34:19.367Z,-0.27
2023-04-05T19:36:49.529Z,-0.25
2023-04-05T19:39:18.501Z,-0.56
2023-04-05T19:41:47.340Z,-0.26
2023-04-05T19:44:37.109Z,-0.30
2023-04-05T19:47:09.274Z,-0.31
2023-04-05T19:49:42.376Z,-0.36
2023-04-05T19:52:15.492Z,-0.37
2023-04-05T19:54:45.174Z,-0.45
2023-04-05T19:57:19.426Z,-0.48
2023-04-05T19:59:48.297Z,-0.56
2023-04-05T20:02:26.735Z,-0.67
2023-04-05T20:04:56.163Z,-0.72
2023-04-05T20:07:26.997Z,-0.76
2023-04-05T20:09:56.434Z,-0.79
2023-04-05T20:12:25.218Z,-0.81
2023-04-05T20:14:54.150Z,-0.78
2023-04-05T20:17:23.317Z,-0.78
2023-04-05T20:20:01.199Z,-0.77
2023-04-05T20:22:34.906Z,-0.80
2023-04-05T20:25:06.352Z,-0.82
2023-04-05T20:27:34.849Z,-0.82
2023-04-05T20:30:03.610Z,-0.81
2023-04-05T20:32:32.292Z,-0.81
2023-04-05T20:35:01.010Z,-0.87
2023-04-05T20:37:31.142Z,-0.92
2023-04-05T20:39:59.686Z,-0.90
2023-04-05T20:42:28.610Z,-0.85
2023-04-05T20:44:57.396Z,-0.83
2023-04-05T20:47:28.108Z,-0.82
2023-04-05T20:50:00.189Z,-0.84
2023-04-05T20:52:31.223Z,-0.84
2023-04-05T20:55:01.920Z,-0.82
2023-04-05T20:57:31.664Z,-0.85
2023-04-05T21:00:02.400Z,-0.83
2023-04-05T21:02:31.679Z,-0.84
2023-04-05T21:05:00.727Z,-0.85
2023-04-05T21:07:34.418Z,-0.87
2023-04-05T21:10:03.703Z,-0.91
2023-04-05T21:12:32.618Z,-1.01
2023-04-05T21:15:01.623Z,-1.09
2023-04-05T21:17:30.678Z,-1.15
2023-04-05T21:19:59.492Z,-1.22
2023-04-05T21:22:28.233Z,-1.25
2023-04-05T21:24:58.528Z,-1.27
2023-04-05T21:27:27.714Z,-1.30
2023-04-05T21:29:56.615Z,-1.31
2023-04-05T21:32:26.002Z,-1.33
2023-04-05T21:34:54.873Z,-1.35
2023-04-05T21:37:23.457Z,-1.35
2023-04-05T21:39:52.207Z,-1.38
2023-04-05T21:42:23.012Z,-1.37
2023-04-05T21:44:54.566Z,-1.35
2023-04-05T21:47:24.765Z,-1.35
2023-04-05T21:50:04.409Z,-1.35
2023-04-05T21:52:33.046Z,-1.33
2023-04-05T21:55:02.116Z,-1.31
2023-04-05T21:57:33.795Z,-1.30
2023-04-05T22:00:05.998Z,-1.32
2023-04-05T22:02:34.772Z,-1.40
2023-04-05T22:05:04.600Z,-1.35
2023-04-05T22:07:33.859Z,-1.29
2023-04-05T22:10:02.966Z,-1.23
2023-04-05T22:12:33.269Z,-1.16
2023-04-05T22:15:03.026Z,-1.09
2023-04-05T22:17:32.223Z,-1.06
2023-04-05T22:20:02.931Z,-1.01
2023-04-05T22:22:32.973Z,-0.96
2023-04-05T22:25:01.697Z,-0.91
2023-04-05T22:27:30.584Z,-0.88
2023-04-05T22:30:01.687Z,-0.86
2023-04-05T22:32:30.303Z,-0.84
2023-04-05T22:34:59.079Z,-0.88
2023-04-05T22:37:27.966Z,-0.87
2023-04-05T22:39:56.969Z,-0.94
2023-04-05T22:42:25.919Z,-0.94
2023-04-05T22:44:54.727Z,-0.96
2023-04-05T22:47:24.889Z,-1.01
2023-04-05T22:49:53.887Z,-1.05
2023-04-05T22:52:22.695Z,-1.05
2023-04-05T22:54:51.481Z,-1.03
2023-04-05T22:57:20.884Z,-1.01
2023-04-05T22:59:49.953Z,-1.02
2023-04-05T23:02:18.906Z,-1.05
2023-04-05T23:04:48.816Z,-1.07
2023-04-05T23:07:17.512Z,-1.12
2023-04-05T23:09:46.363Z,-1.20
2023-04-05T23:12:18.232Z,-1.32
2023-04-05T23:14:47.365Z,-1.40
2023-04-05T23:17:16.306Z,-1.47
2023-04-05T23:19:45.128Z,-1.51
2023-04-05T23:22:15.471Z,-1.59
2023-04-05T23:24:44.177Z,-1.67
2023-04-05T23:27:12.824Z,-1.78
2023-04-05T23:29:42.189Z,-1.82
2023-04-05T23:32:13.029Z,-1.85
2023-04-05T23:34:42.162Z,-1.87
2023-04-05T23:37:14.448Z,-1.87
2023-04-05T23:39:43.140Z,-1.84
2023-04-05T23:42:11.790Z,-1.82
2023-04-05T23:45:30.393Z,-1.81
2023-04-05T23:47:59.064Z,-1.83
2023-04-05T23:50:27.686Z,-1.84
2023-04-05T23:52:58.227Z,-1.87
2023-04-05T23:55:27.419Z,-1.87
2023-04-05T23:58:00.329Z,-1.90
